createdAt,value
2017-08-29T00:00:32.225Z,19.2
2017-08-29T00:01:33.654Z,19.1
2017-08-29T00:02:56.168Z,19.1
2017-08-29T00:03:57.588Z,19.1
2017-08-29T00:05:19.127Z,19.1
2017-08-29T00:06:20.540Z,19.0
2017-08-29T00:07:42.042Z,19.0
2017-08-29T00:08:43.497Z,19.0
2017-08-29T00:10:05.043Z,19.0
2017-08-29T00:11:06.492Z,19.0
2017-08-29T00:12:28.005Z,19.0
2017-08-29T00:13:29.435Z,19.0
2017-08-29T00:14:50.983Z,19.1
2017-08-29T00:15:52.399Z,19.0
2017-08-29T00:17:13.923Z,19.0
2017-08-29T00:18:15.348Z,18.9
2017-08-29T00:19:36.849Z,19.0
2017-08-29T00:20:38.253Z,18.9
2017-08-29T00:21:59.795Z,18.9
2017-08-29T00:23:01.203Z,18.9
2017-08-29T00:24:23.195Z,18.9
2017-08-29T00:25:24.596Z,18.8
2017-08-29T00:26:46.120Z,18.9
2017-08-29T00:27:47.527Z,18.8
2017-08-29T00:29:09.040Z,18.8
2017-08-29T00:30:10.464Z,18.7
2017-08-29T00:31:31.988Z,18.7
2017-08-29T00:32:33.404Z,18.7
2017-08-29T00:33:55.412Z,18.7
2017-08-29T00:34:56.821Z,18.6
2017-08-29T00:36:18.376Z,18.6
2017-08-29T00:37:19.781Z,18.5
2017-08-29T00:38:41.282Z,18.7
2017-08-29T00:39:42.705Z,18.5
2017-08-29T00:41:04.225Z,18.6
2017-08-29T00:42:05.631Z,18.5
2017-08-29T00:43:27.144Z,18.5
2017-08-29T00:44:28.549Z,18.6
2017-08-29T00:45:50.064Z,18.6
2017-08-29T00:46:51.496Z,18.5
2017-08-29T00:48:14.191Z,18.6
2017-08-29T00:49:15.601Z,18.5
2017-08-29T00:50:37.145Z,18.6
2017-08-29T00:51:38.568Z,18.5
2017-08-29T00:53:00.075Z,18.5
2017-08-29T00:54:01.479Z,18.4
2017-08-29T00:55:22.998Z,18.4
2017-08-29T00:56:24.419Z,18.4
2017-08-29T00:57:47.436Z,18.4
2017-08-29T00:58:48.844Z,18.3
2017-08-29T01:00:10.363Z,18.4
2017-08-29T01:01:11.813Z,18.3
2017-08-29T01:02:33.314Z,18.4
2017-08-29T01:03:34.717Z,18.2
2017-08-29T01:04:56.730Z,18.3
2017-08-29T01:05:58.137Z,18.2
2017-08-29T01:07:19.694Z,18.3
2017-08-29T01:08:21.113Z,18.3
2017-08-29T01:09:42.638Z,18.2
2017-08-29T01:10:44.043Z,18.1
2017-08-29T01:12:05.576Z,18.2
2017-08-29T01:13:06.987Z,18.1
2017-08-29T01:14:28.498Z,18.3
2017-08-29T01:15:29.919Z,18.1
2017-08-29T01:16:51.466Z,18.1
2017-08-29T01:17:52.904Z,18.0
2017-08-29T01:19:14.406Z,18.1
2017-08-29T01:20:15.829Z,18.1
2017-08-29T01:21:37.377Z,18.1
2017-08-29T01:22:38.797Z,18.1
2017-08-29T01:24:00.298Z,18.1
2017-08-29T01:25:01.721Z,18.0
2017-08-29T01:26:23.264Z,18.0
2017-08-29T01:27:24.674Z,18.1
2017-08-29T01:28:47.176Z,18.1
2017-08-29T01:29:48.603Z,18.1
2017-08-29T01:31:10.140Z,18.0
2017-08-29T01:32:11.544Z,18.0
2017-08-29T01:33:34.560Z,18.0
2017-08-29T01:34:35.965Z,18.0
2017-08-29T01:35:57.478Z,18.0
2017-08-29T01:36:58.884Z,18.1
2017-08-29T01:38:20.383Z,18.1
2017-08-29T01:39:21.792Z,18.1
2017-08-29T01:40:43.315Z,18.0
2017-08-29T01:41:44.718Z,18.1
2017-08-29T01:43:06.214Z,18.1
2017-08-29T01:44:07.620Z,18.1
2017-08-29T01:45:29.121Z,18.0
2017-08-29T01:46:30.523Z,18.0
2017-08-29T01:47:52.039Z,18.0
2017-08-29T01:48:53.445Z,17.9
2017-08-29T01:50:14.942Z,18.0
2017-08-29T01:51:16.351Z,17.9
2017-08-29T01:52:37.870Z,18.0
2017-08-29T01:53:39.275Z,17.9
2017-08-29T01:55:00.787Z,17.9
2017-08-29T01:56:02.192Z,17.9
2017-08-29T01:57:25.203Z,17.9
2017-08-29T01:58:26.608Z,18.0
2017-08-29T01:59:49.300Z,17.9
2017-08-29T02:00:50.705Z,17.9
2017-08-29T02:02:12.223Z,17.9
2017-08-29T02:03:13.629Z,17.7
2017-08-29T02:04:35.621Z,17.8
2017-08-29T02:05:37.027Z,17.8
2017-08-29T02:06:58.555Z,17.7
2017-08-29T02:07:59.959Z,17.7
2017-08-29T02:09:21.455Z,17.7
2017-08-29T02:10:22.858Z,17.7
2017-08-29T02:11:44.374Z,17.7
2017-08-29T02:12:45.781Z,17.8
2017-08-29T02:14:07.280Z,17.7
2017-08-29T02:15:08.695Z,17.7
2017-08-29T02:16:30.206Z,17.6
2017-08-29T02:17:31.611Z,17.5
2017-08-29T02:18:53.108Z,17.6
2017-08-29T02:19:54.511Z,17.6
2017-08-29T02:21:17.524Z,17.5
2017-08-29T02:22:18.929Z,17.5
2017-08-29T02:23:40.916Z,17.5
2017-08-29T02:24:42.323Z,17.4
2017-08-29T02:26:03.839Z,17.4
2017-08-29T02:27:05.243Z,17.4
2017-08-29T02:28:26.739Z,17.4
2017-08-29T02:29:28.143Z,17.4
2017-08-29T02:30:49.640Z,17.4
2017-08-29T02:31:51.043Z,17.4
2017-08-29T02:33:12.562Z,17.4
2017-08-29T02:34:13.969Z,17.5
2017-08-29T02:35:35.972Z,17.4
2017-08-29T02:36:37.376Z,17.4
2017-08-29T02:37:58.894Z,17.4
2017-08-29T02:39:00.301Z,17.4
2017-08-29T02:40:21.798Z,17.4
2017-08-29T02:41:23.201Z,17.4
2017-08-29T02:42:44.724Z,17.5
2017-08-29T02:43:46.128Z,17.4
2017-08-29T02:45:07.624Z,17.5
2017-08-29T02:46:09.026Z,17.4
2017-08-29T02:47:30.550Z,17.4
2017-08-29T02:48:31.958Z,17.4
2017-08-29T02:49:53.454Z,17.4
2017-08-29T02:50:54.858Z,17.4
2017-08-29T02:52:16.377Z,17.4
2017-08-29T02:53:17.782Z,17.3
2017-08-29T02:54:39.280Z,17.3
2017-08-29T02:55:40.683Z,17.3
2017-08-29T02:57:02.205Z,17.5
2017-08-29T02:58:03.609Z,17.4
2017-08-29T02:59:28.099Z,17.4
2017-08-29T15:27:20.757Z,31.3
2017-08-29T15:28:22.235Z,31.3
2017-08-29T15:29:43.877Z,31.3
2017-08-29T15:30:45.667Z,31.2
2017-08-29T15:32:08.804Z,31.4
2017-08-29T15:33:10.262Z,31.4
2017-08-29T15:34:31.836Z,31.4
2017-08-29T15:35:33.263Z,31.4
2017-08-29T15:36:54.893Z,31.4
2017-08-29T15:37:56.308Z,31.5
2017-08-29T15:39:18.010Z,31.5
2017-08-29T15:40:19.427Z,31.6
2017-08-29T15:41:40.992Z,31.7
2017-08-29T15:42:42.413Z,31.8
2017-08-29T15:44:04.510Z,31.9
2017-08-29T15:45:06.002Z,31.9
2017-08-29T15:46:27.729Z,32.0
2017-08-29T15:47:29.478Z,32.0
2017-08-29T15:48:51.364Z,31.9
2017-08-29T15:49:52.793Z,31.8
2017-08-29T15:51:14.432Z,31.5
2017-08-29T15:52:15.853Z,31.5
2017-08-29T15:53:37.487Z,31.4
2017-08-29T15:54:38.909Z,31.5
2017-08-29T15:56:00.549Z,31.4
2017-08-29T15:57:01.962Z,31.6
2017-08-29T15:58:23.574Z,31.6
2017-08-29T15:59:25.601Z,31.6
2017-08-29T16:00:47.159Z,31.8
2017-08-29T16:01:48.578Z,31.8
2017-08-29T16:03:10.447Z,31.8
2017-08-29T16:04:11.876Z,31.8
2017-08-29T16:05:33.478Z,31.8
2017-08-29T16:06:34.888Z,31.8
2017-08-29T16:08:06.405Z,31.7
2017-08-29T16:09:08.153Z,31.8
2017-08-29T16:10:29.682Z,31.9
2017-08-29T16:11:31.306Z,31.9
2017-08-29T16:12:55.365Z,31.8
2017-08-29T16:13:56.782Z,31.8
2017-08-29T16:15:18.418Z,31.9
2017-08-29T16:16:19.835Z,31.9
2017-08-29T16:17:41.347Z,32.0
2017-08-29T16:18:42.765Z,32.0
2017-08-29T16:20:04.769Z,32.1
2017-08-29T16:21:06.191Z,32.0
2017-08-29T16:22:27.753Z,31.9
2017-08-29T16:23:29.175Z,31.9
2017-08-29T16:24:50.683Z,32.0
2017-08-29T16:25:52.101Z,32.1
2017-08-29T16:27:13.632Z,32.1
2017-08-29T16:28:15.053Z,32.0
2017-08-29T16:29:36.568Z,32.1
2017-08-29T16:30:38.026Z,31.9
2017-08-29T16:31:59.560Z,31.8
2017-08-29T16:33:00.980Z,31.8
2017-08-29T16:34:22.488Z,31.9
2017-08-29T16:35:23.907Z,31.9
2017-08-29T16:36:45.470Z,32.0
2017-08-29T16:37:46.891Z,31.9
2017-08-29T16:39:08.399Z,32.0
2017-08-29T16:40:09.817Z,32.0
2017-08-29T16:41:31.346Z,31.9
2017-08-29T16:42:32.768Z,31.9
2017-08-29T16:43:54.783Z,31.8
2017-08-29T16:44:56.205Z,31.8
2017-08-29T16:46:17.751Z,31.9
2017-08-29T16:47:19.173Z,31.9
2017-08-29T16:48:40.687Z,31.9
2017-08-29T16:49:42.104Z,32.0
2017-08-29T16:51:03.634Z,31.9
2017-08-29T16:52:05.055Z,31.9
2017-08-29T16:53:26.576Z,31.9
2017-08-29T16:54:27.998Z,31.9
2017-08-29T16:55:49.536Z,31.8
2017-08-29T16:56:50.957Z,31.8
2017-08-29T16:58:12.463Z,31.7
2017-08-29T16:59:13.888Z,31.7
2017-08-29T17:00:35.412Z,31.8
2017-08-29T17:01:36.836Z,31.7
2017-08-29T17:02:58.350Z,31.8
2017-08-29T17:03:59.767Z,31.7
2017-08-29T17:05:21.310Z,31.5
2017-08-29T17:06:22.734Z,31.5
2017-08-29T17:07:44.240Z,31.4
2017-08-29T17:08:45.656Z,31.5
2017-08-29T17:10:07.165Z,31.5
2017-08-29T17:11:08.580Z,31.4
2017-08-29T17:12:30.109Z,31.4
2017-08-29T17:13:31.525Z,31.4
2017-08-29T17:14:53.035Z,31.4
2017-08-29T17:15:54.452Z,31.5
2017-08-29T17:17:16.180Z,31.4
2017-08-29T17:18:17.752Z,31.4
2017-08-29T17:19:39.264Z,31.4
2017-08-29T17:20:40.681Z,31.3
2017-08-29T17:22:02.211Z,31.3
2017-08-29T17:23:03.632Z,31.2
2017-08-29T17:24:25.199Z,31.3
2017-08-29T17:25:26.630Z,31.3
2017-08-29T17:26:48.161Z,31.2
2017-08-29T17:27:49.581Z,31.2
2017-08-29T17:29:11.095Z,31.2
2017-08-29T17:30:12.529Z,31.1
2017-08-29T17:31:34.087Z,30.9
2017-08-29T17:32:35.508Z,30.9
2017-08-29T17:33:57.015Z,30.9
2017-08-29T17:34:58.434Z,30.8
2017-08-29T17:36:19.960Z,30.8
2017-08-29T17:37:21.381Z,30.8
2017-08-29T17:38:42.889Z,30.8
2017-08-29T17:39:44.312Z,30.7
2017-08-29T17:41:05.844Z,30.7
2017-08-29T17:42:07.259Z,30.7
2017-08-29T17:43:28.766Z,30.5
2017-08-29T17:44:30.183Z,30.5
2017-08-29T17:45:51.718Z,30.5
2017-08-29T17:46:53.152Z,30.4
2017-08-29T17:48:14.662Z,30.3
2017-08-29T17:49:16.080Z,30.3
2017-08-29T17:50:37.615Z,30.2
2017-08-29T17:51:39.030Z,30.2
2017-08-29T17:53:00.541Z,30.1
2017-08-29T17:54:01.958Z,29.9
2017-08-29T17:55:23.465Z,29.9
2017-08-29T17:56:24.881Z,29.9
2017-08-29T17:57:46.406Z,29.8
2017-08-29T17:58:47.824Z,29.7
2017-08-29T18:00:09.336Z,29.7
2017-08-29T18:01:10.874Z,29.6
2017-08-29T18:02:32.423Z,29.6
2017-08-29T18:03:33.835Z,29.6
2017-08-29T18:04:55.347Z,29.5
2017-08-29T18:05:56.775Z,29.5
2017-08-29T18:07:23.376Z,29.3
2017-08-29T18:08:24.805Z,29.2
2017-08-29T18:09:46.370Z,29.1
2017-08-29T18:10:47.782Z,29.1
2017-08-29T18:12:09.324Z,29.1
2017-08-29T18:13:10.786Z,29.0
2017-08-29T18:14:32.296Z,28.9
2017-08-29T18:15:33.710Z,28.7
2017-08-29T18:16:55.239Z,28.7
2017-08-29T18:17:56.677Z,28.7
2017-08-29T18:19:18.663Z,28.6
2017-08-29T18:20:20.084Z,28.5
2017-08-29T18:21:41.615Z,28.4
2017-08-29T18:22:43.133Z,28.4
2017-08-29T18:24:04.640Z,28.2
2017-08-29T18:25:06.058Z,28.1
2017-08-29T18:26:27.621Z,28.0
2017-08-29T18:27:29.034Z,28.0
2017-08-29T18:28:50.536Z,28.0
2017-08-29T18:29:51.949Z,28.0
2017-08-29T18:31:13.470Z,27.9
2017-08-29T18:32:14.886Z,27.8
2017-08-29T18:33:36.390Z,27.7
2017-08-29T18:34:37.808Z,27.7
2017-08-29T18:35:59.329Z,27.6
2017-08-29T18:37:00.743Z,27.7
2017-08-29T18:38:22.247Z,27.6
2017-08-29T18:39:23.657Z,27.5
2017-08-29T18:40:45.166Z,27.5
2017-08-29T18:41:46.576Z,27.4
2017-08-29T18:43:08.097Z,27.4
2017-08-29T18:44:09.509Z,27.3
2017-08-29T18:45:31.009Z,27.4
2017-08-29T18:46:32.420Z,27.2
2017-08-29T18:47:53.941Z,27.3
2017-08-29T18:48:55.357Z,27.2
2017-08-29T18:50:16.866Z,27.2
2017-08-29T18:51:18.275Z,27.2
2017-08-29T18:52:39.826Z,27.1
2017-08-29T18:53:41.208Z,27.1
2017-08-29T18:55:02.710Z,27.0
2017-08-29T18:56:04.120Z,27.0
2017-08-29T18:57:25.645Z,26.9
2017-08-29T18:58:27.055Z,26.8
2017-08-29T18:59:48.559Z,26.6
2017-08-29T19:00:49.971Z,26.5
2017-08-29T19:02:11.493Z,26.5
2017-08-29T19:03:12.903Z,26.4
2017-08-29T19:04:34.405Z,26.4
2017-08-29T19:05:35.814Z,26.4
2017-08-29T19:06:57.331Z,26.5
2017-08-29T19:07:58.746Z,26.4
2017-08-29T19:09:20.252Z,26.4
2017-08-29T19:10:21.760Z,26.3
2017-08-29T19:11:43.301Z,26.4
2017-08-29T19:12:44.710Z,26.3
2017-08-29T19:14:06.216Z,26.4
2017-08-29T19:15:07.623Z,26.3
2017-08-29T19:16:29.132Z,26.4
2017-08-29T19:17:30.541Z,26.3
2017-08-29T19:18:52.069Z,26.3
2017-08-29T19:19:53.479Z,26.3
2017-08-29T19:21:14.982Z,26.3
2017-08-29T19:22:16.392Z,26.2
2017-08-29T19:23:37.913Z,26.1
2017-08-29T19:24:39.327Z,26.1
2017-08-29T19:26:00.829Z,26.1
2017-08-29T19:27:02.239Z,26.1
2017-08-29T19:28:23.760Z,25.9
2017-08-29T19:29:25.169Z,26.1
2017-08-29T19:30:46.677Z,26.1
2017-08-29T19:31:48.086Z,26.1
2017-08-29T19:33:10.119Z,26.0
2017-08-29T19:34:11.532Z,25.9
2017-08-29T19:35:33.029Z,25.9
2017-08-29T19:36:34.439Z,25.8
2017-08-29T19:37:55.962Z,25.8
2017-08-29T19:38:57.370Z,25.7
2017-08-29T19:40:19.006Z,25.7
2017-08-29T19:41:20.748Z,25.7
2017-08-29T19:42:42.290Z,25.7
2017-08-29T19:43:43.703Z,25.6
2017-08-29T19:45:05.203Z,25.7
2017-08-29T19:46:06.611Z,25.6
2017-08-29T19:47:28.129Z,25.6
2017-08-29T19:48:29.543Z,25.6
2017-08-29T19:49:51.041Z,25.5
2017-08-29T19:50:52.451Z,25.5
2017-08-29T19:52:13.968Z,25.5
2017-08-29T19:53:15.379Z,25.4
2017-08-29T19:54:36.883Z,25.4
2017-08-29T19:55:38.291Z,25.4
2017-08-29T19:56:59.813Z,25.4
2017-08-29T19:58:01.224Z,25.4
2017-08-29T19:59:22.724Z,25.4
2017-08-29T20:00:24.132Z,25.3
2017-08-29T20:01:45.633Z,25.3
2017-08-29T20:02:47.042Z,25.3
2017-08-29T20:04:08.562Z,25.3
2017-08-29T20:05:10.071Z,25.2
2017-08-29T20:06:31.572Z,25.2
2017-08-29T20:07:32.984Z,25.1
2017-08-29T20:08:54.505Z,25.2
2017-08-29T20:09:55.917Z,25.0
2017-08-29T20:11:17.415Z,25.0
2017-08-29T20:12:18.874Z,24.9
2017-08-29T20:13:40.393Z,24.9
2017-08-29T20:14:41.805Z,24.9
2017-08-29T20:16:03.305Z,24.8
2017-08-29T20:17:04.715Z,24.9
2017-08-29T20:18:26.238Z,24.8
2017-08-29T20:19:27.650Z,24.9
2017-08-29T20:20:49.192Z,24.9
2017-08-29T20:21:50.599Z,24.8
2017-08-29T20:23:12.118Z,24.9
2017-08-29T20:24:13.528Z,24.8
2017-08-29T20:25:35.032Z,24.8
2017-08-29T20:26:36.444Z,24.7
2017-08-29T20:27:57.972Z,24.7
2017-08-29T20:28:59.380Z,24.8
2017-08-29T20:30:20.882Z,24.8
2017-08-29T20:31:22.291Z,24.8
2017-08-29T20:32:43.816Z,24.8
2017-08-29T20:33:45.223Z,24.7
2017-08-29T20:35:06.724Z,24.7
2017-08-29T20:36:08.133Z,24.5
2017-08-29T20:37:29.652Z,24.6
2017-08-29T20:38:31.061Z,24.6
2017-08-29T20:39:52.559Z,24.6
2017-08-29T20:40:53.968Z,24.5
2017-08-29T20:42:15.494Z,24.5
2017-08-29T20:43:16.933Z,24.6
2017-08-29T20:44:38.640Z,24.5
2017-08-29T20:45:40.057Z,24.4
2017-08-29T20:47:01.556Z,24.4
2017-08-29T20:48:02.964Z,24.3
2017-08-29T20:49:24.484Z,24.3
2017-08-29T20:50:25.893Z,24.4
2017-08-29T20:51:47.390Z,24.3
2017-08-29T20:52:48.798Z,24.3
2017-08-29T20:54:10.321Z,24.3
2017-08-29T20:55:11.731Z,24.2
2017-08-29T20:56:33.233Z,24.2
2017-08-29T20:57:34.643Z,24.1
2017-08-29T20:58:56.529Z,24.2
2017-08-29T20:59:57.935Z,24.1
2017-08-29T21:01:19.432Z,24.1
2017-08-29T21:02:20.845Z,24.1
2017-08-29T21:03:42.376Z,24.0
2017-08-29T21:04:43.774Z,24.0
2017-08-29T21:06:05.270Z,23.9
2017-08-29T21:07:06.680Z,23.9
2017-08-29T21:08:28.204Z,24.0
2017-08-29T21:09:29.614Z,23.9
2017-08-29T21:10:51.113Z,23.9
2017-08-29T21:11:52.525Z,23.9
2017-08-29T21:13:14.043Z,23.9
2017-08-29T21:14:15.452Z,23.8
2017-08-29T21:15:36.952Z,23.8
2017-08-29T21:16:38.359Z,23.8
2017-08-29T21:17:59.876Z,23.9
2017-08-29T21:19:01.291Z,23.9
2017-08-29T21:20:22.792Z,23.8
2017-08-29T21:21:24.199Z,23.9
2017-08-29T21:22:45.704Z,23.8
2017-08-29T21:23:47.110Z,23.8
2017-08-29T21:25:08.627Z,23.8
2017-08-29T21:26:10.036Z,23.7
2017-08-29T21:27:31.531Z,23.7
2017-08-29T21:28:32.944Z,23.7
2017-08-29T21:29:54.463Z,23.7
2017-08-29T21:30:55.875Z,23.7
2017-08-29T21:32:17.369Z,23.6
2017-08-29T21:33:18.843Z,23.6
2017-08-29T21:34:40.386Z,23.5
2017-08-29T21:35:41.798Z,23.5
2017-08-29T21:37:03.290Z,23.6
2017-08-29T21:38:04.701Z,23.6
2017-08-29T21:39:26.218Z,23.5
2017-08-29T21:40:27.626Z,23.6
2017-08-29T21:41:49.124Z,23.6
2017-08-29T21:42:50.535Z,23.5
2017-08-29T21:44:12.056Z,23.5
2017-08-29T21:45:13.465Z,23.5
2017-08-29T21:46:34.964Z,23.5
2017-08-29T21:47:36.373Z,23.5
2017-08-29T21:48:57.893Z,23.4
2017-08-29T21:49:59.302Z,23.4
2017-08-29T21:51:20.797Z,23.3
2017-08-29T21:52:22.206Z,23.3
2017-08-29T21:53:43.726Z,23.0
2017-08-29T21:54:45.135Z,23.1
2017-08-29T21:56:06.917Z,23.0
2017-08-29T21:57:08.310Z,22.9
2017-08-29T21:58:29.828Z,23.0
2017-08-29T21:59:31.237Z,23.1
2017-08-29T22:00:52.887Z,23.0
2017-08-29T22:01:54.297Z,23.0
2017-08-29T22:03:15.795Z,23.1
2017-08-29T22:04:17.204Z,23.1
2017-08-29T22:05:38.721Z,23.1
2017-08-29T22:06:40.129Z,23.0
2017-08-29T22:08:01.627Z,23.1
2017-08-29T22:09:03.036Z,23.0
2017-08-29T22:10:24.555Z,23.1
2017-08-29T22:11:25.958Z,23.0
2017-08-29T22:12:47.457Z,23.1
2017-08-29T22:13:48.870Z,23.1
2017-08-29T22:15:10.380Z,23.0
2017-08-29T22:16:11.788Z,23.1
2017-08-29T22:17:33.287Z,23.1
2017-08-29T22:18:34.692Z,23.0
2017-08-29T22:19:56.210Z,23.1
2017-08-29T22:20:57.618Z,23.0
2017-08-29T22:22:19.116Z,23.1
2017-08-29T22:23:20.527Z,23.0
2017-08-29T22:24:42.039Z,22.9
2017-08-29T22:25:43.450Z,22.8
2017-08-29T22:27:04.946Z,22.8
2017-08-29T22:28:06.353Z,22.8
2017-08-29T22:29:27.876Z,22.8
2017-08-29T22:30:29.287Z,22.7
2017-08-29T22:31:50.782Z,22.7
2017-08-29T22:32:52.191Z,22.7
2017-08-29T22:34:13.717Z,22.7
2017-08-29T22:35:15.127Z,22.7
2017-08-29T22:36:36.627Z,22.7
2017-08-29T22:37:38.033Z,22.7
2017-08-29T22:38:59.553Z,22.8
2017-08-29T22:40:00.961Z,22.8
2017-08-29T22:41:23.459Z,22.7
2017-08-29T22:42:24.868Z,22.8
2017-08-29T22:43:46.383Z,22.8
2017-08-29T22:44:47.792Z,22.8
2017-08-29T22:46:09.287Z,22.7
2017-08-29T22:47:10.696Z,22.6
2017-08-29T22:48:32.196Z,22.6
2017-08-29T22:49:33.605Z,22.5
2017-08-29T22:50:55.121Z,22.5
2017-08-29T22:51:56.530Z,22.5
2017-08-29T22:53:18.026Z,22.4
2017-08-29T22:54:19.432Z,22.3
2017-08-29T22:55:40.949Z,22.3
2017-08-29T22:56:42.357Z,22.3
2017-08-29T22:58:03.852Z,22.4
2017-08-29T22:59:05.258Z,22.4
2017-08-29T23:00:26.778Z,22.4
2017-08-29T23:01:28.185Z,22.3
2017-08-29T23:02:49.679Z,22.3
2017-08-29T23:03:51.088Z,22.2
2017-08-29T23:05:12.606Z,22.3
2017-08-29T23:06:14.016Z,22.3
2017-08-29T23:07:35.512Z,22.3
2017-08-29T23:08:36.918Z,22.2
2017-08-29T23:09:58.434Z,22.2
2017-08-29T23:10:59.841Z,22.4
2017-08-29T23:12:21.340Z,22.3
2017-08-29T23:13:22.746Z,22.4
2017-08-29T23:14:44.267Z,22.3
2017-08-29T23:15:45.674Z,22.3
2017-08-29T23:17:07.172Z,22.2
2017-08-29T23:18:08.574Z,22.3
2017-08-29T23:19:30.097Z,22.4
2017-08-29T23:20:31.507Z,22.3
2017-08-29T23:21:53.002Z,22.3
2017-08-29T23:22:54.410Z,22.3
2017-08-29T23:24:15.931Z,22.3
2017-08-29T23:25:17.340Z,22.3
2017-08-29T23:26:38.839Z,22.4
2017-08-29T23:27:40.243Z,22.4
2017-08-29T23:29:01.743Z,22.4
2017-08-29T23:30:03.173Z,22.3
2017-08-29T23:31:24.664Z,22.2
2017-08-29T23:32:26.072Z,22.3
2017-08-29T23:33:47.576Z,22.2
2017-08-29T23:34:48.979Z,22.2
2017-08-29T23:36:10.523Z,22.2
2017-08-29T23:37:11.919Z,22.3
2017-08-29T23:38:33.416Z,22.3
2017-08-29T23:39:34.825Z,22.2
2017-08-29T23:40:56.341Z,22.1
2017-08-29T23:41:57.754Z,22.0
2017-08-29T23:43:19.247Z,22.1
2017-08-29T23:44:20.654Z,22.1
2017-08-29T23:45:42.172Z,22.1
2017-08-29T23:46:43.582Z,22.1
2017-08-29T23:48:05.081Z,22.2
2017-08-29T23:49:06.492Z,22.2
2017-08-29T23:50:28.006Z,22.1
2017-08-29T23:51:29.411Z,22.1
2017-08-29T23:52:50.908Z,22.0
2017-08-29T23:53:52.314Z,22.0
2017-08-29T23:55:13.831Z,22.0
2017-08-29T23:56:15.239Z,22.0
2017-08-29T23:57:36.736Z,22.0
2017-08-29T23:58:38.159Z,21.9
2017-08-29T23:59:59.685Z,21.9
